Kinta, OK (74552)

3:33 AM CDT on September 19, 2014 (GMT -0500)
Stigler | Change Station
CLOSE
Current Station
Airport
Location: Stigler,
Elevation: 600 ft
Nearby Weather Stations

Elev 600 ft 35.29 °N, 95.09 °W | Updated 18 minutes ago

Mostly Cloudy
Mostly Cloudy
68 °F
Feels Like 68 °F
N
10
Wind Variable Wind from ESE

Today
High -- | Low -- °F
--% Chance of Precip.
Yesterday
High -- | Low -- °F
Precip. -- in
7:06 AM 7:22 PM
Waning Crescent, 21% visible
Pressure 29.98 in
Visibility 5.0 miles
Clouds Overcast 600 ft
Dew Point 66 °F
Humidity 94%
Rainfall 0.00 in
Snow Depth Not available.
UV 0 out of 12
Pollen 9.20 out of 12
Air Quality Not available.
Flu Activity Not available.
METAR KGZL 190815Z AUTO 11009KT 5SM BR OVC006 20/19 A2998 RMK AO2

More Conditions Fewer Conditions

Pressure 29.98 in
Visibility 5.0 miles
Clouds Overcast 600 ft
Dew Point 66 °F
Humidity 94%
Rainfall 0.00 in
Snow Depth Not available.
UV 0 out of 12
Pollen 9.20 out of 12
Air Quality Not available.
Flu Activity Not available.
METAR KGZL 190815Z AUTO 11009KT 5SM BR OVC006 20/19 A2998 RMK AO2

More Conditions Fewer Conditions

10-Day Weather Forecast

Almanac

Astronomy

Sep. 19, 2014 Rise Set
Actual Time 7:06 AM CDT 7:22 PM CDT
Civil Twilight 6:41 AM CDT 7:47 PM CDT
Nautical Twilight 6:11 AM CDT 8:17 PM CDT
Astronomical Twilight 5:41 AM CDT 8:47 PM CDT
Moon 3:00 AM CDT 4:45 PM CDT
Length of Visible Light 13h 06m
Length of Day
12h 15m
Tomorrow will be 2m 11s shorter.
Waning Crescent, 21% of the Moon is Illuminated
Today
Waning Crescent
Sep 24
New
Oct 1
First Quarter
Oct 8
Full
Oct 15
Last Quarter

Today's Extremes

State Highs State Lows

Community

WunderPhotos

Upload Photos

1,754,580 photos uploaded!

Nearby

Snow Depth

Station Depth Elevation
No new snow has been reported.

Earthquake Activity

City Distance Mag. Time & Date
Jones, Oklahoma 114 miles 2.8 1:13 AM CDT
2014-09-19
Perry, Oklahoma 130 miles 3.3 12:08 AM CDT
2014-09-19
Perry, Oklahoma 133 miles 3.4 2:52 PM CDT
2014-09-18
Perry, Oklahoma 131 miles 3.9 2:12 AM CDT
2014-09-18
Minimum magnitude displayed is 2.5.

Coastal Water Temperatures

Place Temperature
No Stations Reporting

Nearby Weather Stations